Time;durP1;ratioP1;P1;durP2;ratioP2;P2;SDS_P1;SDS_P2;PMS_P1;PMS_P2;Temp;Humidity;BMP_temperature;BMP_pressure;BME280_temperature;BME280_humidity;BME280_pressure;Samples;Min_cycle;Max_cycle;Signal;HPM_P1;HPM_P2
2022/01/01 00:04:55;;;;;;;13.68;7.53;;;11.50;99.90;;;;;;10343918;28;20176;-63
2022/01/01 00:09:57;;;;;;;11.27;6.43;;;11.50;99.90;;;;;;10346810;28;20046;-63
2022/01/01 00:15:03;;;;;;;13.30;5.63;;;11.50;99.90;;;;;;10341578;28;20180;-63
2022/01/01 00:20:06;;;;;;;13.05;6.28;;;11.40;99.90;;;;;;10344912;28;20511;-64
2022/01/01 00:25:08;;;;;;;11.55;6.32;;;11.40;99.90;;;;;;10342163;28;20074;-64
2022/01/01 00:30:11;;;;;;;16.13;7.50;;;11.50;99.90;;;;;;10342122;28;20082;-64
2022/01/01 00:35:12;;;;;;;13.80;7.38;;;11.50;99.90;;;;;;10344117;28;20140;-64
2022/01/01 00:40:14;;;;;;;17.08;7.55;;;11.50;99.90;;;;;;10338718;28;20137;-63
2022/01/01 00:45:16;;;;;;;12.85;6.10;;;11.50;99.90;;;;;;10340538;28;22426;-64
2022/01/01 00:50:17;;;;;;;16.60;6.70;;;11.50;99.90;;;;;;10338585;28;20110;-64
2022/01/01 00:55:19;;;;;;;12.02;6.80;;;11.60;99.90;;;;;;10340590;28;20074;-64
2022/01/01 01:00:21;;;;;;;15.15;7.03;;;11.60;99.90;;;;;;10337592;28;20558;-63
2022/01/01 01:05:23;;;;;;;19.27;7.47;;;11.50;99.90;;;;;;10351333;28;20085;-64
2022/01/01 01:10:25;;;;;;;15.05;7.50;;;11.50;99.90;;;;;;10339957;28;20133;-64
2022/01/01 01:15:27;;;;;;;15.88;6.90;;;11.50;99.90;;;;;;10334683;28;20128;-64
2022/01/01 01:20:29;;;;;;;16.83;7.55;;;11.50;99.90;;;;;;10341108;28;20492;-64
2022/01/01 01:25:40;;;;;;;16.95;7.63;;;11.50;99.90;;;;;;10341243;28;20060;-64
2022/01/01 01:30:42;;;;;;;21.10;9.07;;;11.50;99.90;;;;;;10338884;28;20138;-65
2022/01/01 01:35:44;;;;;;;23.30;9.85;;;11.50;99.90;;;;;;10336785;28;20489;-64
2022/01/01 01:40:45;;;;;;;28.70;14.23;;;11.50;99.90;;;;;;10342028;28;20050;-64
2022/01/01 01:45:48;;;;;;;72.47;34.53;;;11.50;99.90;;;;;;10340640;28;20152;-61
2022/01/01 01:50:50;;;;;;;79.57;40.95;;;11.50;99.90;;;;;;10337813;28;20054;-61
2022/01/01 01:55:52;;;;;;;41.55;20.95;;;11.50;99.90;;;;;;10338126;28;20061;-62
2022/01/01 02:01:20;;;;;;;21.52;10.27;;;11.50;99.90;;;;;;10334984;28;20144;-62
2022/01/01 02:06:24;;;;;;;13.27;6.63;;;11.50;99.90;;;;;;10338433;28;20713;-62
2022/01/01 02:11:26;;;;;;;9.70;5.07;;;11.50;99.90;;;;;;10340398;28;20116;-62
2022/01/01 02:16:39;;;;;;;10.27;5.30;;;11.50;99.90;;;;;;10336674;28;20125;-61
2022/01/01 02:21:41;;;;;;;11.85;4.85;;;11.50;99.90;;;;;;10339501;28;20444;-61
2022/01/01 02:26:44;;;;;;;10.80;5.13;;;11.50;99.90;;;;;;10339391;28;20042;-62
2022/01/01 02:31:46;;;;;;;10.43;4.53;;;11.50;99.90;;;;;;10338610;28;20049;-62
2022/01/01 02:36:47;;;;;;;12.95;4.85;;;11.50;99.90;;;;;;10337672;28;20068;-62
2022/01/01 02:41:53;;;;;;;7.57;4.50;;;11.50;99.90;;;;;;10337374;28;20050;-62
2022/01/01 02:46:56;;;;;;;10.63;3.53;;;11.50;99.90;;;;;;10335159;28;20132;-62
2022/01/01 02:51:58;;;;;;;8.32;4.28;;;11.50;99.90;;;;;;10339445;28;20100;-62
2022/01/01 02:57:00;;;;;;;8.05;4.30;;;11.50;99.90;;;;;;10338203;28;20043;-62
2022/01/01 03:02:05;;;;;;;6.13;3.00;;;11.50;99.90;;;;;;10335919;28;20567;-62
2022/01/01 03:07:07;;;;;;;8.48;2.92;;;11.50;99.90;;;;;;10336494;28;20056;-62
2022/01/01 03:12:11;;;;;;;9.10;3.92;;;11.50;99.90;;;;;;10334487;28;20131;-62
2022/01/01 03:17:12;;;;;;;7.47;2.95;;;11.40;99.90;;;;;;10340414;28;20451;-62
2022/01/01 03:22:14;;;;;;;7.32;2.80;;;11.40;99.90;;;;;;10337395;28;20120;-62
2022/01/01 03:27:16;;;;;;;5.05;2.95;;;11.40;99.90;;;;;;10341240;28;20869;-62
2022/01/01 03:32:17;;;;;;;6.28;3.15;;;11.40;99.90;;;;;;10340993;28;20128;-62
2022/01/01 03:37:19;;;;;;;7.28;3.40;;;11.40;99.90;;;;;;10342513;28;20127;-61
2022/01/01 03:42:21;;;;;;;6.63;3.10;;;11.40;99.90;;;;;;10345990;28;20049;-62
2022/01/01 03:47:22;;;;;;;7.65;3.83;;;11.40;99.90;;;;;;10341606;28;20093;-62
2022/01/01 03:52:24;;;;;;;8.05;2.95;;;11.30;99.90;;;;;;10343511;28;20089;-61
2022/01/01 03:57:26;;;;;;;6.95;4.05;;;11.30;99.90;;;;;;10345320;28;20123;-62
2022/01/01 04:02:28;;;;;;;7.18;3.33;;;11.30;99.90;;;;;;10341774;28;20585;-62
2022/01/01 04:07:33;;;;;;;8.88;3.47;;;11.30;99.90;;;;;;10345744;28;20053;-62
2022/01/01 04:12:35;;;;;;;6.25;3.13;;;11.30;99.90;;;;;;10337956;28;20057;-62
2022/01/01 04:17:38;;;;;;;7.05;3.47;;;11.30;99.90;;;;;;10344234;28;20135;-61
2022/01/01 04:22:39;;;;;;;10.07;3.95;;;11.30;99.90;;;;;;10341999;28;20069;-62
2022/01/01 04:27:41;;;;;;;8.10;4.10;;;11.30;99.90;;;;;;10343599;28;20108;-62
2022/01/01 04:32:43;;;;;;;9.93;3.45;;;11.30;99.90;;;;;;10339535;28;20582;-62
2022/01/01 04:37:44;;;;;;;9.25;3.65;;;11.30;99.90;;;;;;10341142;28;20138;-61
2022/01/01 04:42:46;;;;;;;10.05;4.60;;;11.30;99.90;;;;;;10341949;28;20128;-61
2022/01/01 04:47:48;;;;;;;7.80;4.40;;;11.30;99.90;;;;;;10338967;28;20405;-61
2022/01/01 04:52:49;;;;;;;8.50;3.35;;;11.30;99.90;;;;;;10341383;28;20104;-62
2022/01/01 04:57:51;;;;;;;9.05;3.53;;;11.20;99.90;;;;;;10344260;28;20941;-61
2022/01/01 05:02:53;;;;;;;10.40;4.43;;;11.20;99.90;;;;;;10338662;28;20127;-61
2022/01/01 05:07:55;;;;;;;12.18;4.30;;;11.20;99.90;;;;;;10342098;28;20042;-61
2022/01/01 05:12:57;;;;;;;10.10;4.07;;;11.10;99.90;;;;;;10337794;28;20129;-61
2022/01/01 05:17:58;;;;;;;8.25;4.07;;;11.10;99.90;;;;;;10342505;28;20066;-61
2022/01/01 05:23:00;;;;;;;9.45;3.55;;;11.20;99.90;;;;;;10338022;28;20069;-61
2022/01/01 05:28:02;;;;;;;8.48;3.92;;;11.20;99.90;;;;;;10339347;28;20128;-61
2022/01/01 05:33:03;;;;;;;7.68;4.32;;;11.10;99.90;;;;;;10343207;28;20451;-62
2022/01/01 05:38:05;;;;;;;8.32;3.92;;;11.20;99.90;;;;;;10333737;28;20104;-62
2022/01/01 05:43:26;;;;;;;7.68;3.30;;;11.20;99.90;;;;;;10344235;28;20112;-61
2022/01/01 05:48:28;;;;;;;8.23;3.42;;;11.20;99.90;;;;;;10339261;28;20061;-61
2022/01/01 05:53:30;;;;;;;7.95;3.67;;;11.20;99.90;;;;;;10338874;28;20119;-61
2022/01/01 05:58:32;;;;;;;9.05;3.88;;;11.20;99.90;;;;;;10334404;28;20688;-62
2022/01/01 06:03:33;;;;;;;7.20;3.50;;;11.20;99.90;;;;;;10340157;28;20101;-61
2022/01/01 06:08:35;;;;;;;10.43;3.55;;;11.20;99.90;;;;;;10340506;28;20078;-62
2022/01/01 06:13:36;;;;;;;12.07;5.10;;;11.20;99.90;;;;;;10334428;28;20108;-62
2022/01/01 06:18:38;;;;;;;9.40;3.65;;;11.10;99.90;;;;;;10332830;28;20436;-62
2022/01/01 06:23:41;;;;;;;12.13;5.05;;;11.00;99.90;;;;;;10344726;28;20401;-62
2022/01/01 06:28:42;;;;;;;14.38;4.07;;;10.90;99.90;;;;;;10338352;28;20041;-61
2022/01/01 06:33:44;;;;;;;13.57;6.03;;;10.90;99.90;;;;;;10339765;28;20050;-62
2022/01/01 06:38:47;;;;;;;13.10;5.55;;;10.90;99.90;;;;;;10334542;28;20119;-61
2022/01/01 06:43:49;;;;;;;12.65;4.30;;;10.80;99.90;;;;;;10341032;28;20069;-62
2022/01/01 06:48:50;;;;;;;10.48;4.82;;;10.70;99.90;;;;;;10330994;28;20486;-61
2022/01/01 06:53:52;;;;;;;8.98;4.72;;;10.60;99.90;;;;;;10338504;28;20165;-62
2022/01/01 06:58:54;;;;;;;13.77;5.32;;;10.50;99.90;;;;;;10337594;28;20123;-61
2022/01/01 07:03:56;;;;;;;15.68;4.88;;;10.50;99.90;;;;;;10337603;28;20069;-62
2022/01/01 07:08:58;;;;;;;10.07;5.78;;;10.50;99.90;;;;;;10345831;28;20081;-62
2022/01/01 07:14:00;;;;;;;10.40;5.00;;;10.50;99.90;;;;;;10345053;28;20555;-62
2022/01/01 07:19:01;;;;;;;10.45;5.35;;;10.50;99.90;;;;;;10344679;28;20131;-62
2022/01/01 07:24:03;;;;;;;15.82;4.90;;;10.60;99.90;;;;;;10341369;28;20038;-63
2022/01/01 07:29:05;;;;;;;15.48;6.15;;;10.60;99.90;;;;;;10344576;28;20096;-63
2022/01/01 07:34:07;;;;;;;10.68;5.45;;;10.70;99.90;;;;;;10347699;28;20104;-64
2022/01/01 07:39:10;;;;;;;13.00;5.32;;;10.70;99.90;;;;;;10342040;28;20142;-64
2022/01/01 07:44:13;;;;;;;9.23;5.35;;;10.80;99.90;;;;;;10354545;28;20065;-64
2022/01/01 07:49:14;;;;;;;14.80;6.85;;;10.80;99.90;;;;;;10344930;28;20069;-61
2022/01/01 07:54:16;;;;;;;11.15;5.38;;;10.90;99.90;;;;;;10344737;28;20886;-62
2022/01/01 07:59:18;;;;;;;15.45;5.75;;;10.90;99.90;;;;;;10343868;28;20045;-62
2022/01/01 08:04:19;;;;;;;13.45;5.78;;;11.00;99.90;;;;;;10343757;28;20046;-62
2022/01/01 08:09:21;;;;;;;13.63;5.50;;;11.00;99.90;;;;;;10345657;28;20089;-63
2022/01/01 08:14:23;;;;;;;12.07;5.45;;;11.10;99.90;;;;;;10342621;28;20070;-62
2022/01/01 08:19:26;;;;;;;12.43;5.82;;;11.10;99.90;;;;;;10342579;28;20046;-62
2022/01/01 08:24:27;;;;;;;10.95;5.35;;;11.20;99.90;;;;;;10343455;28;20045;-62
2022/01/01 08:29:31;;;;;;;17.35;7.82;;;11.00;99.90;;;;;;10344985;28;20057;-62
2022/01/01 08:34:33;;;;;;;11.95;5.35;;;11.10;99.90;;;;;;10344191;28;20077;-64
2022/01/01 08:39:35;;;;;;;15.02;6.72;;;11.10;99.90;;;;;;10345180;28;20081;-63
2022/01/01 08:44:36;;;;;;;12.50;5.70;;;11.10;99.90;;;;;;10338949;28;20061;-63
2022/01/01 08:49:38;;;;;;;15.25;6.25;;;11.30;99.90;;;;;;10337807;28;20112;-63
2022/01/01 08:54:40;;;;;;;12.65;6.15;;;11.40;99.90;;;;;;10343752;28;20085;-64
2022/01/01 08:59:41;;;;;;;11.52;5.45;;;11.40;99.90;;;;;;10341697;28;20070;-63
2022/01/01 09:04:44;;;;;;;15.48;6.45;;;11.50;99.90;;;;;;10337905;28;20050;-63
2022/01/01 09:09:46;;;;;;;14.68;5.88;;;11.40;99.90;;;;;;10337916;28;20058;-63
2022/01/01 09:14:48;;;;;;;13.63;6.55;;;11.40;99.90;;;;;;10337256;28;20078;-63
2022/01/01 09:19:50;;;;;;;13.65;6.43;;;11.50;99.90;;;;;;10344005;28;20057;-64
2022/01/01 09:24:52;;;;;;;18.45;6.60;;;11.40;99.90;;;;;;10338998;28;20117;-63
2022/01/01 09:29:54;;;;;;;16.50;6.75;;;11.40;99.90;;;;;;10345566;28;20595;-63
2022/01/01 09:34:55;;;;;;;19.20;6.78;;;11.40;99.90;;;;;;10339815;28;20108;-64
2022/01/01 09:39:57;;;;;;;11.98;6.10;;;11.40;99.90;;;;;;10341493;28;20129;-64
2022/01/01 09:44:59;;;;;;;13.88;6.20;;;11.40;99.90;;;;;;10335574;28;20099;-63
2022/01/01 09:50:01;;;;;;;13.73;5.68;;;11.40;99.90;;;;;;10341234;28;20045;-63
2022/01/01 09:55:03;;;;;;;16.90;8.27;;;11.50;99.90;;;;;;10340958;28;20045;-64
2022/01/01 10:00:05;;;;;;;12.73;6.63;;;11.50;99.90;;;;;;10336388;28;20061;-63
2022/01/01 10:05:07;;;;;;;14.00;7.63;;;11.50;99.90;;;;;;10339473;28;20069;-63
2022/01/01 10:10:24;;;;;;;16.75;7.13;;;11.60;99.90;;;;;;10338366;28;20096;-64
2022/01/01 10:15:25;;;;;;;15.20;7.50;;;11.50;99.90;;;;;;10339106;28;20061;-64
2022/01/01 10:20:34;;;;;;;19.80;8.05;;;11.40;99.90;;;;;;10336747;28;20076;-63
2022/01/01 10:30:58;;;;;;;20.23;7.65;;;11.50;99.90;;;;;;10331211;28;20053;-64
2022/01/01 10:36:06;;;;;;;14.65;6.35;;;11.50;99.90;;;;;;10330947;28;20073;-63
2022/01/01 10:41:10;;;;;;;17.40;7.22;;;11.60;99.90;;;;;;10334600;28;20105;-63
2022/01/01 10:46:15;;;;;;;17.35;7.20;;;11.50;99.90;;;;;;10340211;28;20050;-64
2022/01/01 10:51:18;;;;;;;18.50;8.30;;;11.70;99.90;;;;;;10333809;28;20054;-64
2022/01/01 10:56:21;;;;;;;20.70;8.02;;;11.70;99.90;;;;;;10337700;28;20512;-64
2022/01/01 11:01:23;;;;;;;15.35;7.80;;;11.70;99.90;;;;;;10332647;28;20077;-64
2022/01/01 11:06:32;;;;;;;17.92;7.65;;;11.70;99.90;;;;;;10339753;28;20156;-64
2022/01/01 11:11:35;;;;;;;15.63;6.93;;;11.60;99.90;;;;;;10336434;28;20054;-63
2022/01/01 11:16:38;;;;;;;16.92;7.68;;;11.70;99.90;;;;;;10340374;28;20105;-63
2022/01/01 11:21:40;;;;;;;16.60;7.03;;;11.70;99.90;;;;;;10341555;28;20132;-64
2022/01/01 11:26:42;;;;;;;18.15;7.78;;;11.80;99.90;;;;;;10338727;28;20496;-63
2022/01/01 11:31:46;;;;;;;15.48;7.35;;;11.80;99.90;;;;;;10340048;28;20120;-64
2022/01/01 11:36:48;;;;;;;17.67;7.35;;;11.80;99.90;;;;;;10335144;28;20045;-64
2022/01/01 11:41:52;;;;;;;18.80;7.60;;;11.90;99.90;;;;;;10334416;28;20046;-64
2022/01/01 11:47:00;;;;;;;14.50;7.47;;;12.00;99.90;;;;;;10331884;28;20123;-64
2022/01/01 11:52:03;;;;;;;14.45;6.65;;;12.00;99.90;;;;;;10336636;28;20057;-63
2022/01/01 11:57:10;;;;;;;16.50;7.18;;;12.00;99.90;;;;;;10347003;28;20077;-64
2022/01/01 12:02:18;;;;;;;19.73;8.75;;;12.10;99.90;;;;;;10336308;28;20049;-64
2022/01/01 12:07:21;;;;;;;16.00;6.45;;;12.00;99.90;;;;;;10348613;28;20053;-64
2022/01/01 12:12:36;;;;;;;16.77;7.15;;;12.10;99.90;;;;;;10340333;28;20050;-64
2022/01/01 12:17:49;;;;;;;18.05;7.75;;;12.10;99.90;;;;;;10342108;28;20104;-64
2022/01/01 12:22:51;;;;;;;13.60;6.07;;;12.00;99.90;;;;;;10340078;28;20077;-64
2022/01/01 12:27:55;;;;;;;14.65;6.75;;;12.10;99.90;;;;;;10340244;28;20569;-63
2022/01/01 12:32:56;;;;;;;14.90;6.82;;;12.20;99.90;;;;;;10341004;28;20099;-63
2022/01/01 12:38:19;;;;;;;13.52;6.18;;;12.40;99.90;;;;;;10341232;28;20140;-63
2022/01/01 12:43:20;;;;;;;12.63;6.47;;;12.30;99.90;;;;;;10344107;28;20045;-63
2022/01/01 12:48:30;;;;;;;13.48;6.22;;;12.30;99.90;;;;;;10341921;28;20073;-63
2022/01/01 12:53:38;;;;;;;14.40;6.00;;;12.20;99.90;;;;;;10335746;28;20602;-63
2022/01/01 12:58:43;;;;;;;13.13;6.32;;;12.30;99.90;;;;;;10342693;28;20136;-63
2022/01/01 13:03:51;;;;;;;16.95;7.22;;;12.30;99.90;;;;;;10341181;28;20142;-63
2022/01/01 13:08:57;;;;;;;14.82;6.35;;;12.30;99.90;;;;;;10346139;28;20069;-63
2022/01/01 13:13:59;;;;;;;14.05;6.18;;;12.40;99.90;;;;;;10336742;28;20088;-63
2022/01/01 13:19:05;;;;;;;12.52;5.25;;;12.50;99.90;;;;;;10336331;28;20124;-63
2022/01/01 13:24:07;;;;;;;12.90;5.10;;;12.40;99.90;;;;;;10338456;28;20061;-63
2022/01/01 13:29:09;;;;;;;11.90;4.90;;;12.30;99.90;;;;;;10338401;28;20037;-63
2022/01/01 13:34:12;;;;;;;14.15;6.13;;;12.30;99.90;;;;;;10342681;28;20493;-63
2022/01/01 13:39:15;;;;;;;13.55;6.25;;;12.40;99.90;;;;;;10342592;28;20111;-63
2022/01/01 13:44:18;;;;;;;14.73;5.90;;;12.40;99.90;;;;;;10340730;28;20046;-63
2022/01/01 13:49:19;;;;;;;11.40;5.68;;;12.30;99.90;;;;;;10337935;28;20181;-63
2022/01/01 13:54:23;;;;;;;12.20;6.05;;;12.40;99.90;;;;;;10341307;28;20092;-63
2022/01/01 13:59:29;;;;;;;11.18;4.88;;;12.50;99.90;;;;;;10339908;28;20125;-63
2022/01/01 14:04:38;;;;;;;9.80;5.05;;;12.40;99.90;;;;;;10335835;28;20057;-63
2022/01/01 14:10:03;;;;;;;10.25;4.68;;;12.40;99.90;;;;;;10337962;28;20101;-63
2022/01/01 14:15:19;;;;;;;13.90;5.32;;;12.30;99.90;;;;;;10342104;28;20061;-63
2022/01/01 14:20:29;;;;;;;12.73;5.78;;;12.20;99.90;;;;;;10337560;28;20501;-63
2022/01/01 14:25:33;;;;;;;12.30;5.93;;;12.20;99.90;;;;;;10338074;28;20095;-63
2022/01/01 14:30:36;;;;;;;11.80;5.45;;;12.30;99.90;;;;;;10340521;28;20096;-63
2022/01/01 14:35:37;;;;;;;12.52;5.47;;;12.30;99.90;;;;;;10338928;28;20123;-63
2022/01/01 14:40:39;;;;;;;10.85;5.38;;;12.20;99.90;;;;;;10333137;28;20050;-63
2022/01/01 14:45:43;;;;;;;12.35;6.05;;;12.10;99.90;;;;;;10336530;28;20054;-62
2022/01/01 14:51:00;;;;;;;8.85;4.53;;;12.20;99.90;;;;;;10336552;28;20054;-62
2022/01/01 14:56:34;;;;;;;10.87;4.60;;;12.10;99.90;;;;;;10340558;28;20128;-63
2022/01/01 15:01:36;;;;;;;15.98;6.22;;;12.10;99.90;;;;;;10333867;28;20037;-63
2022/01/01 15:06:39;;;;;;;11.57;5.88;;;12.00;99.90;;;;;;10338324;28;20045;-63
2022/01/01 15:11:41;;;;;;;9.48;4.43;;;12.00;99.90;;;;;;10336493;28;20089;-63
2022/01/01 15:16:44;;;;;;;9.95;4.90;;;12.00;99.90;;;;;;10337391;28;20088;-63
2022/01/01 15:22:01;;;;;;;12.32;5.85;;;12.00;99.90;;;;;;10332082;28;20081;-63
2022/01/01 15:27:05;;;;;;;12.20;5.47;;;11.90;99.90;;;;;;10336064;28;20061;-63
2022/01/01 15:37:33;;;;;;;13.70;5.30;;;12.00;99.90;;;;;;10343239;28;20510;-62
2022/01/01 15:42:37;;;;;;;13.48;5.90;;;11.90;99.90;;;;;;10343634;28;20979;-62
2022/01/01 15:47:42;;;;;;;8.32;4.43;;;12.00;99.90;;;;;;10345288;28;20058;-62
2022/01/01 15:52:43;;;;;;;11.10;5.00;;;12.00;99.90;;;;;;10349682;28;20070;-62
2022/01/01 15:57:55;;;;;;;9.88;4.43;;;12.00;99.90;;;;;;10342348;28;20481;-62
2022/01/01 16:03:01;;;;;;;11.52;4.57;;;12.00;99.90;;;;;;10343938;28;20049;-64
2022/01/01 16:08:30;;;;;;;9.60;5.00;;;12.00;99.90;;;;;;10340405;28;20058;-65
2022/01/01 16:13:35;;;;;;;10.35;5.75;;;11.90;99.90;;;;;;10335071;28;20171;-63
2022/01/01 16:18:45;;;;;;;14.05;6.13;;;11.90;99.90;;;;;;10343785;28;20053;-63
2022/01/01 16:23:48;;;;;;;14.30;5.90;;;11.90;99.90;;;;;;10338893;28;20060;-63
2022/01/01 16:28:50;;;;;;;15.43;6.20;;;11.90;99.90;;;;;;10352547;28;20136;-63
2022/01/01 16:33:52;;;;;;;9.25;4.03;;;11.80;99.90;;;;;;10347770;28;20869;-63
2022/01/01 16:38:57;;;;;;;10.32;4.43;;;11.80;99.90;;;;;;10339525;28;20070;-63
2022/01/01 16:44:12;;;;;;;12.02;4.80;;;11.80;99.90;;;;;;10342862;28;20460;-63
2022/01/01 16:49:21;;;;;;;8.20;3.85;;;11.80;99.90;;;;;;10343014;28;20135;-64
2022/01/01 16:54:25;;;;;;;9.48;4.15;;;11.70;99.90;;;;;;10343570;28;20377;-63
2022/01/01 16:59:30;;;;;;;8.88;4.07;;;11.60;99.90;;;;;;10339076;28;20049;-63
2022/01/01 17:04:35;;;;;;;8.20;4.32;;;11.50;99.90;;;;;;10357240;28;20164;-63
2022/01/01 17:09:37;;;;;;;6.82;4.60;;;11.40;99.90;;;;;;10341801;28;20128;-64
2022/01/01 17:14:39;;;;;;;27.33;8.05;;;11.30;99.90;;;;;;10339670;28;20127;-64
2022/01/01 17:19:49;;;;;;;15.25;5.60;;;11.10;99.90;;;;;;10332935;28;20053;-64
2022/01/01 17:25:08;;;;;;;18.48;7.50;;;11.00;99.90;;;;;;10336087;28;20143;-64
2022/01/01 17:30:10;;;;;;;18.13;8.40;;;10.90;99.90;;;;;;10342869;28;20085;-64
2022/01/01 17:35:20;;;;;;;17.45;7.80;;;10.70;99.90;;;;;;10337746;28;20044;-64
2022/01/01 17:40:26;;;;;;;14.93;7.20;;;10.60;99.90;;;;;;10343064;28;20037;-64
2022/01/01 17:45:29;;;;;;;18.10;8.57;;;10.60;99.90;;;;;;10340644;28;20069;-64
2022/01/01 17:50:33;;;;;;;15.15;7.53;;;10.40;99.90;;;;;;10341589;28;20042;-63
2022/01/01 17:55:39;;;;;;;15.48;7.18;;;10.30;99.90;;;;;;10333419;28;20139;-64
2022/01/01 18:00:41;;;;;;;15.13;7.00;;;10.20;99.90;;;;;;10341248;28;20050;-64
2022/01/01 18:05:44;;;;;;;16.05;7.57;;;10.10;99.90;;;;;;10344296;28;20050;-63
2022/01/01 18:10:50;;;;;;;20.83;9.70;;;10.10;99.90;;;;;;10324197;28;20042;-64
2022/01/01 18:15:53;;;;;;;18.80;9.27;;;10.00;99.90;;;;;;10334766;28;20115;-63
2022/01/01 18:20:59;;;;;;;23.08;9.38;;;9.90;99.90;;;;;;10337983;28;20045;-64
2022/01/01 18:26:07;;;;;;;21.33;9.57;;;9.80;99.90;;;;;;10333671;28;20072;-64
2022/01/01 18:31:11;;;;;;;17.27;9.27;;;9.70;99.90;;;;;;10341453;28;20053;-64
2022/01/01 18:36:16;;;;;;;20.67;9.80;;;9.70;99.90;;;;;;10343138;28;20070;-63
2022/01/01 18:41:20;;;;;;;18.70;7.45;;;9.60;99.90;;;;;;10339404;28;20145;-64
2022/01/01 18:46:26;;;;;;;20.42;6.68;;;9.50;99.90;;;;;;10339186;28;20493;-64
2022/01/01 18:51:33;;;;;;;19.60;7.95;;;9.40;99.90;;;;;;10337193;28;20052;-64
2022/01/01 18:56:57;;;;;;;29.40;13.27;;;9.30;99.90;;;;;;10340599;28;20477;-64
2022/01/01 19:02:01;;;;;;;25.48;10.40;;;9.20;99.90;;;;;;10334292;28;20046;-63
2022/01/01 19:07:03;;;;;;;22.05;10.68;;;9.10;99.90;;;;;;10349041;28;20054;-64
2022/01/01 19:12:13;;;;;;;20.23;10.38;;;9.10;99.90;;;;;;10343763;28;20038;-63
2022/01/01 19:17:16;;;;;;;27.92;10.85;;;8.90;99.90;;;;;;10345999;28;20108;-63
2022/01/01 19:22:18;;;;;;;23.77;11.15;;;8.90;99.90;;;;;;10342014;28;20469;-64
2022/01/01 19:27:25;;;;;;;32.65;14.05;;;8.80;99.90;;;;;;10344753;28;20538;-64
2022/01/01 19:32:27;;;;;;;27.20;12.10;;;8.70;99.90;;;;;;10343517;28;20069;-63
2022/01/01 19:37:29;;;;;;;26.00;11.20;;;8.60;99.90;;;;;;10344662;28;20563;-63
2022/01/01 19:42:36;;;;;;;27.55;13.30;;;8.50;99.90;;;;;;10343652;28;20053;-64
2022/01/01 19:47:52;;;;;;;30.42;12.30;;;8.50;99.90;;;;;;10344482;28;20492;-63
2022/01/01 19:52:54;;;;;;;25.55;11.23;;;8.40;99.90;;;;;;10342637;28;20124;-63
2022/01/01 19:57:56;;;;;;;27.75;12.55;;;8.40;99.90;;;;;;10344929;28;20660;-63
2022/01/01 20:02:58;;;;;;;30.00;13.80;;;8.30;99.90;;;;;;10344734;28;20078;-64
2022/01/01 20:08:00;;;;;;;60.22;30.17;;;8.30;99.90;;;;;;10344680;28;20072;-64
2022/01/01 20:13:03;;;;;;;36.50;19.45;;;8.20;99.90;;;;;;10340747;28;20623;-64
2022/01/01 20:18:05;;;;;;;30.20;13.02;;;8.20;99.90;;;;;;10343594;28;20060;-63
2022/01/01 20:23:07;;;;;;;35.78;16.27;;;8.20;99.90;;;;;;10343028;28;20046;-63
2022/01/01 20:28:08;;;;;;;34.13;16.33;;;8.10;99.90;;;;;;10346210;28;20381;-63
2022/01/01 20:33:10;;;;;;;25.60;14.07;;;8.10;99.90;;;;;;10335800;28;20038;-63
2022/01/01 20:38:12;;;;;;;29.83;15.75;;;8.10;99.90;;;;;;10344642;28;20135;-63
2022/01/01 20:43:13;;;;;;;29.48;17.40;;;8.00;99.90;;;;;;10340394;28;20160;-63
2022/01/01 20:48:15;;;;;;;31.52;14.73;;;8.00;99.90;;;;;;10339718;28;20458;-64
2022/01/01 20:53:17;;;;;;;27.02;15.75;;;8.00;99.90;;;;;;10341481;28;20485;-65
2022/01/01 20:58:20;;;;;;;33.45;16.13;;;7.90;99.90;;;;;;10344909;28;20096;-63
2022/01/01 21:03:23;;;;;;;25.52;13.90;;;7.90;99.90;;;;;;10343318;28;20182;-64
2022/01/01 21:08:25;;;;;;;29.83;15.27;;;7.90;99.90;;;;;;10341904;28;20054;-63
2022/01/01 21:13:29;;;;;;;28.00;15.85;;;7.80;99.90;;;;;;10345725;28;20353;-65
2022/01/01 21:18:31;;;;;;;32.13;15.48;;;7.80;99.90;;;;;;10347903;28;20058;-64
2022/01/01 21:23:32;;;;;;;36.25;16.60;;;7.70;99.90;;;;;;10341163;28;20061;-64
2022/01/01 21:28:34;;;;;;;41.47;15.68;;;7.70;99.90;;;;;;10345064;28;20057;-63
2022/01/01 21:33:36;;;;;;;35.05;15.60;;;7.60;99.90;;;;;;10338129;28;20049;-64
2022/01/01 21:38:38;;;;;;;50.83;16.58;;;7.60;99.90;;;;;;10343166;28;20056;-65
2022/01/01 21:43:39;;;;;;;64.93;16.35;;;7.50;99.90;;;;;;10340447;28;20066;-66
2022/01/01 21:48:43;;;;;;;37.15;14.02;;;7.50;99.90;;;;;;10342707;28;20061;-62
2022/01/01 21:53:46;;;;;;;36.28;14.20;;;7.50;99.90;;;;;;10343863;28;20074;-61
2022/01/01 21:58:48;;;;;;;32.67;13.13;;;7.50;99.90;;;;;;10340757;28;20563;-63
2022/01/01 22:03:50;;;;;;;25.90;13.77;;;7.40;99.90;;;;;;10345896;28;20056;-63
2022/01/01 22:08:52;;;;;;;33.70;15.57;;;7.40;99.90;;;;;;10342941;28;20070;-63
2022/01/01 22:13:54;;;;;;;27.83;12.73;;;7.30;99.90;;;;;;10338687;28;20081;-63
2022/01/01 22:18:55;;;;;;;25.45;12.55;;;7.30;99.90;;;;;;10340246;28;20046;-63
2022/01/01 22:23:57;;;;;;;30.27;13.10;;;7.20;99.90;;;;;;10343423;28;20502;-63
2022/01/01 22:28:59;;;;;;;33.90;15.20;;;7.20;99.90;;;;;;10339512;28;20061;-63
2022/01/01 22:34:01;;;;;;;29.50;15.30;;;7.10;99.90;;;;;;10333341;28;20566;-63
2022/01/01 22:39:05;;;;;;;28.98;13.43;;;7.00;99.90;;;;;;10344018;28;20058;-64
2022/01/01 22:44:07;;;;;;;33.50;14.07;;;7.00;99.90;;;;;;10339423;28;20135;-65
2022/01/01 22:49:08;;;;;;;38.60;15.75;;;6.90;99.90;;;;;;10340190;28;20108;-64
2022/01/01 22:54:10;;;;;;;34.10;16.17;;;6.90;99.90;;;;;;10342296;28;20137;-64
2022/01/01 22:59:12;;;;;;;29.50;15.18;;;6.90;99.90;;;;;;10339008;28;20042;-64
2022/01/01 23:04:14;;;;;;;30.73;16.98;;;6.90;99.90;;;;;;10344692;28;20104;-64
2022/01/01 23:09:16;;;;;;;36.88;16.25;;;6.90;99.90;;;;;;10340422;28;20076;-64
2022/01/01 23:14:22;;;;;;;39.63;14.95;;;6.90;99.90;;;;;;10341493;28;20056;-64
2022/01/01 23:19:24;;;;;;;30.33;15.55;;;7.00;99.90;;;;;;10340963;28;20598;-63
2022/01/01 23:24:28;;;;;;;32.10;15.00;;;7.00;99.90;;;;;;10345690;28;20054;-63
2022/01/01 23:29:34;;;;;;;40.00;16.95;;;7.00;99.90;;;;;;10343273;28;20054;-64
2022/01/01 23:34:40;;;;;;;36.08;16.27;;;7.00;99.90;;;;;;10337568;28;20100;-64
2022/01/01 23:39:42;;;;;;;28.65;13.50;;;7.00;99.90;;;;;;10339644;28;20041;-64
2022/01/01 23:44:58;;;;;;;33.75;14.60;;;7.00;99.90;;;;;;10341034;28;20493;-64
2022/01/01 23:50:00;;;;;;;35.92;16.30;;;7.00;99.90;;;;;;10345863;28;20133;-64
2022/01/01 23:55:10;;;;;;;37.78;16.20;;;7.00;99.90;;;;;;10354306;28;20045;-64
